createdAt,value
2022-11-29T00:00:09.485Z,93.00
2022-11-29T00:04:12.620Z,93.09
2022-11-29T00:08:16.621Z,92.98
2022-11-29T00:12:19.300Z,93.32
2022-11-29T00:16:21.973Z,93.07
2022-11-29T00:20:24.737Z,93.13
2022-11-29T00:24:31.510Z,93.35
2022-11-29T00:28:34.828Z,93.08
2022-11-29T00:32:37.490Z,93.10
2022-11-29T00:36:41.034Z,93.29
2022-11-29T00:40:45.080Z,93.27
2022-11-29T00:44:48.034Z,93.31
2022-11-29T00:48:50.760Z,93.38
2022-11-29T00:52:53.412Z,93.37
2022-11-29T00:56:57.601Z,93.51
2022-11-29T01:01:00.314Z,93.41
2022-11-29T01:05:03.042Z,93.29
2022-11-29T01:09:05.855Z,93.32
2022-11-29T01:13:10.480Z,93.43
2022-11-29T01:17:13.138Z,93.31
2022-11-29T01:21:17.181Z,93.50
2022-11-29T01:25:20.244Z,93.47
2022-11-29T01:29:24.624Z,93.58
2022-11-29T01:33:27.306Z,93.60
2022-11-29T01:37:30.529Z,93.66
2022-11-29T01:41:35.493Z,93.69
2022-11-29T01:45:40.379Z,93.66
2022-11-29T01:49:46.822Z,93.77
2022-11-29T01:53:49.771Z,93.60
2022-11-29T01:57:53.087Z,93.75
2022-11-29T02:02:01.335Z,93.90
2022-11-29T02:06:05.581Z,93.73
2022-11-29T02:10:09.561Z,93.92
2022-11-29T02:14:28.291Z,93.73
2022-11-29T02:18:46.197Z,93.81
2022-11-29T02:22:57.420Z,93.73
2022-11-29T02:27:18.003Z,93.69
2022-11-29T02:31:53.532Z,93.93
2022-11-29T02:40:44.350Z,93.88
2022-11-29T02:45:04.138Z,93.83
2022-11-29T02:49:16.674Z,93.70
2022-11-29T02:53:27.021Z,93.86
2022-11-29T02:57:42.204Z,93.95
2022-11-29T03:01:53.323Z,93.77
2022-11-29T03:06:04.431Z,93.89
2022-11-29T03:10:15.225Z,93.77
2022-11-29T03:14:26.065Z,93.75
2022-11-29T03:18:36.167Z,93.73
2022-11-29T03:22:47.984Z,93.83
2022-11-29T03:26:56.173Z,93.94
2022-11-29T03:31:09.678Z,93.86
2022-11-29T03:35:19.791Z,93.77
2022-11-29T03:39:29.298Z,93.68
2022-11-29T03:43:41.667Z,93.83
2022-11-29T03:47:55.794Z,93.86
2022-11-29T03:52:07.109Z,93.83
2022-11-29T03:56:27.071Z,94.03
2022-11-29T04:00:37.180Z,93.80
2022-11-29T04:05:24.793Z,94.05
2022-11-29T04:09:41.361Z,93.93
2022-11-29T04:14:14.897Z,93.99
2022-11-29T04:18:46.589Z,93.99
2022-11-29T04:23:21.265Z,93.99
2022-11-29T04:27:41.586Z,94.08
2022-11-29T04:32:04.425Z,94.03
2022-11-29T04:36:35.091Z,94.23
2022-11-29T04:40:56.926Z,94.04
2022-11-29T04:45:36.401Z,94.06
2022-11-29T04:49:55.978Z,94.18
2022-11-29T04:54:04.085Z,94.38
2022-11-29T04:58:17.099Z,94.26
2022-11-29T05:02:34.596Z,94.56
2022-11-29T05:06:45.357Z,94.55
2022-11-29T05:11:00.968Z,94.59
2022-11-29T05:15:29.718Z,94.73
2022-11-29T05:19:55.994Z,94.76
2022-11-29T05:24:11.884Z,94.88
2022-11-29T05:28:22.033Z,94.57
2022-11-29T05:32:32.584Z,94.67
2022-11-29T05:36:44.216Z,94.76
2022-11-29T05:41:02.583Z,94.75
2022-11-29T05:45:10.889Z,94.57
2022-11-29T05:49:23.340Z,94.72
2022-11-29T05:53:35.197Z,94.79
2022-11-29T05:57:44.702Z,94.83
2022-11-29T06:01:56.027Z,94.82
2022-11-29T06:06:03.132Z,94.81
2022-11-29T06:10:12.497Z,95.14
2022-11-29T06:14:31.174Z,94.83
2022-11-29T06:18:55.093Z,94.72
2022-11-29T06:23:24.103Z,94.78
2022-11-29T06:27:52.790Z,94.76
2022-11-29T06:32:04.239Z,94.78
2022-11-29T06:36:19.409Z,94.79
2022-11-29T06:40:22.628Z,94.72
2022-11-29T06:44:27.287Z,94.74
2022-11-29T06:48:36.482Z,94.76
2022-11-29T06:52:47.681Z,94.70
2022-11-29T06:56:56.772Z,94.73
2022-11-29T07:01:11.852Z,94.88
2022-11-29T07:05:22.499Z,94.62
2022-11-29T07:09:29.644Z,94.73
2022-11-29T07:13:32.937Z,94.71
2022-11-29T07:17:49.107Z,94.70
2022-11-29T07:22:00.824Z,94.66
2022-11-29T07:26:18.085Z,94.60
2022-11-29T07:30:22.428Z,94.61
2022-11-29T07:34:38.037Z,94.44
2022-11-29T07:38:55.700Z,94.42
2022-11-29T07:43:14.797Z,94.96
2022-11-29T07:47:17.670Z,95.78
2022-11-29T07:51:21.829Z,95.14
2022-11-29T07:55:26.037Z,94.73
2022-11-29T07:59:28.704Z,94.67
2022-11-29T08:03:33.018Z,94.34
2022-11-29T08:07:38.146Z,94.53
2022-11-29T08:11:41.230Z,94.39
2022-11-29T08:15:47.728Z,94.31
2022-11-29T08:19:50.357Z,94.12
2022-11-29T08:23:54.404Z,94.17
2022-11-29T08:27:57.379Z,94.22
2022-11-29T08:32:00.216Z,94.56
2022-11-29T08:36:06.307Z,94.06
2022-11-29T08:40:11.625Z,94.23
2022-11-29T08:44:14.337Z,94.94
2022-11-29T08:48:17.056Z,94.32
2022-11-29T08:52:37.305Z,93.88
2022-11-29T09:01:04.027Z,93.42
2022-11-29T09:05:08.496Z,93.41
2022-11-29T09:09:11.267Z,93.29
2022-11-29T09:13:15.445Z,93.34
2022-11-29T09:17:18.176Z,93.42
2022-11-29T09:21:21.506Z,93.26
2022-11-29T09:25:24.350Z,93.24
2022-11-29T09:29:28.345Z,93.63
2022-11-29T09:33:31.004Z,93.43
2022-11-29T09:37:35.048Z,93.37
2022-11-29T09:41:51.891Z,93.45
2022-11-29T09:46:01.928Z,93.18
2022-11-29T09:50:21.660Z,93.34
2022-11-29T09:54:37.583Z,93.11
2022-11-29T09:58:46.943Z,93.05
2022-11-29T10:02:55.549Z,92.97
2022-11-29T10:07:04.079Z,93.01
2022-11-29T10:11:17.026Z,92.99
2022-11-29T10:15:22.870Z,93.24
2022-11-29T10:19:33.291Z,92.98
2022-11-29T10:23:41.456Z,92.87
2022-11-29T10:27:44.156Z,92.71
2022-11-29T10:31:49.456Z,92.68
2022-11-29T10:35:57.844Z,92.94
2022-11-29T10:40:04.613Z,92.72
2022-11-29T10:44:07.494Z,92.50
2022-11-29T10:48:15.627Z,93.18
2022-11-29T10:52:21.871Z,93.05
2022-11-29T10:56:29.501Z,92.61
2022-11-29T11:00:32.226Z,92.72
2022-11-29T11:04:38.865Z,92.76
2022-11-29T11:08:45.961Z,92.64
2022-11-29T11:13:02.600Z,92.55
2022-11-29T11:17:25.948Z,92.80
2022-11-29T11:21:29.366Z,92.52
2022-11-29T11:25:35.694Z,92.95
2022-11-29T11:29:41.055Z,92.99
2022-11-29T11:33:45.700Z,92.83
2022-11-29T11:37:57.207Z,92.59
2022-11-29T11:42:20.928Z,92.38
2022-11-29T11:46:23.941Z,92.43
2022-11-29T11:50:30.347Z,93.33
2022-11-29T11:54:36.308Z,94.09
2022-11-29T11:58:48.907Z,92.86
2022-11-29T12:02:51.686Z,92.14
2022-11-29T12:06:57.548Z,92.00
2022-11-29T12:11:07.452Z,91.95
2022-11-29T12:15:19.750Z,92.36
2022-11-29T12:19:26.190Z,92.14
2022-11-29T12:23:36.400Z,91.68
2022-11-29T12:27:40.427Z,91.79
2022-11-29T12:31:58.858Z,91.99
2022-11-29T12:36:19.379Z,92.59
2022-11-29T12:40:30.112Z,92.07
2022-11-29T12:44:44.281Z,92.17
2022-11-29T12:48:56.049Z,92.32
2022-11-29T12:53:13.460Z,92.01
2022-11-29T12:57:21.386Z,92.13
2022-11-29T13:01:31.048Z,92.20
2022-11-29T13:05:50.511Z,92.17
2022-11-29T13:10:17.720Z,92.04
2022-11-29T13:14:42.475Z,91.79
2022-11-29T13:18:54.453Z,91.98
2022-11-29T13:23:06.520Z,92.04
2022-11-29T13:27:17.014Z,93.33
2022-11-29T13:31:22.393Z,92.62
2022-11-29T13:35:32.399Z,91.78
2022-11-29T13:39:49.006Z,92.27
2022-11-29T13:43:58.820Z,92.19
2022-11-29T13:48:03.365Z,92.61
2022-11-29T13:52:07.360Z,94.67
2022-11-29T13:56:27.096Z,95.76
2022-11-29T14:00:32.525Z,94.97
2022-11-29T14:04:38.620Z,95.18
2022-11-29T14:09:17.324Z,93.19
2022-11-29T14:13:15.673Z,90.96
2022-11-29T14:17:49.389Z,90.20
2022-11-29T14:22:23.076Z,90.89
2022-11-29T14:26:30.751Z,91.07
2022-11-29T14:30:47.332Z,91.52
2022-11-29T14:34:55.948Z,91.60
2022-11-29T14:39:12.712Z,91.58
2022-11-29T14:43:21.844Z,92.16
2022-11-29T14:47:31.751Z,92.08
2022-11-29T14:51:35.546Z,92.05
2022-11-29T14:55:39.809Z,92.41
2022-11-29T14:59:50.028Z,92.40
2022-11-29T15:03:55.349Z,92.71
2022-11-29T15:08:07.589Z,92.75
2022-11-29T15:12:15.802Z,92.50
2022-11-29T15:16:31.890Z,92.66
2022-11-29T15:21:00.134Z,92.60
2022-11-29T15:25:11.448Z,92.39
2022-11-29T15:29:15.329Z,92.68
2022-11-29T15:33:23.915Z,92.79
2022-11-29T15:37:44.537Z,92.75
2022-11-29T15:41:47.226Z,92.71
2022-11-29T15:45:51.220Z,94.60
2022-11-29T15:49:55.347Z,95.50
2022-11-29T15:54:12.852Z,94.62
2022-11-29T15:58:17.693Z,94.00
2022-11-29T16:02:23.030Z,93.36
2022-11-29T16:06:30.171Z,93.14
2022-11-29T16:10:37.269Z,92.98
2022-11-29T16:14:50.192Z,92.74
2022-11-29T16:18:52.855Z,92.50
2022-11-29T16:23:11.253Z,92.68
2022-11-29T16:27:15.821Z,92.46
2022-11-29T16:31:19.339Z,92.24
2022-11-29T16:35:25.999Z,91.80
2022-11-29T16:39:28.831Z,91.93
2022-11-29T16:43:53.587Z,91.92
2022-11-29T16:47:58.850Z,91.64
2022-11-29T16:52:02.286Z,91.66
2022-11-29T16:56:06.053Z,91.42
2022-11-29T17:00:25.514Z,91.94
2022-11-29T17:04:28.111Z,91.93
2022-11-29T17:08:31.636Z,91.79
2022-11-29T17:12:34.472Z,92.30
2022-11-29T17:16:38.508Z,92.45
2022-11-29T17:20:41.243Z,92.49
2022-11-29T17:24:48.021Z,91.31
2022-11-29T17:28:52.820Z,91.49
2022-11-29T17:32:56.897Z,91.48
2022-11-29T17:36:59.571Z,91.21
2022-11-29T17:41:07.869Z,91.42
2022-11-29T17:45:11.298Z,91.45
2022-11-29T17:49:15.420Z,91.50
2022-11-29T17:53:18.175Z,91.95
2022-11-29T17:57:20.853Z,91.99
2022-11-29T18:01:25.850Z,91.96
2022-11-29T18:05:34.582Z,93.18
2022-11-29T18:09:37.653Z,92.22
2022-11-29T18:13:40.529Z,91.84
2022-11-29T18:17:43.213Z,91.99
2022-11-29T18:21:47.329Z,92.50
2022-11-29T18:25:56.745Z,91.45
2022-11-29T18:29:59.548Z,90.41
2022-11-29T18:34:06.897Z,89.99
2022-11-29T18:38:15.975Z,90.11
2022-11-29T18:42:19.143Z,89.99
2022-11-29T18:46:22.174Z,90.43
2022-11-29T18:50:24.880Z,90.63
2022-11-29T18:54:30.930Z,89.80
2022-11-29T18:58:34.601Z,89.72
2022-11-29T19:02:37.261Z,89.88
2022-11-29T19:06:40.776Z,89.86
2022-11-29T19:10:44.877Z,89.93
2022-11-29T19:14:50.032Z,90.11
2022-11-29T19:18:55.322Z,90.64
2022-11-29T19:23:00.612Z,90.26
2022-11-29T19:27:05.268Z,90.30
2022-11-29T19:31:08.813Z,90.51
2022-11-29T19:35:11.547Z,91.13
2022-11-29T19:39:16.262Z,90.92
2022-11-29T19:43:20.236Z,90.95
2022-11-29T19:47:22.897Z,91.05
2022-11-29T19:51:26.678Z,91.33
2022-11-29T19:55:29.351Z,91.09
2022-11-29T19:59:33.569Z,91.29
2022-11-29T20:03:36.340Z,91.29
2022-11-29T20:07:39.576Z,91.26
2022-11-29T20:11:42.303Z,91.03
2022-11-29T20:15:46.469Z,91.49
2022-11-29T20:19:49.741Z,91.52
2022-11-29T20:23:56.453Z,91.62
2022-11-29T20:27:59.257Z,91.50
2022-11-29T20:32:03.787Z,91.62
2022-11-29T20:36:18.994Z,91.51
2022-11-29T20:40:25.663Z,91.56
2022-11-29T20:44:37.601Z,91.74
2022-11-29T20:48:42.179Z,91.65
2022-11-29T20:52:50.220Z,91.70
2022-11-29T20:56:52.920Z,91.62
2022-11-29T21:00:56.439Z,91.77
2022-11-29T21:05:00.526Z,91.67
2022-11-29T21:09:03.268Z,91.65
2022-11-29T21:13:09.017Z,91.53
2022-11-29T21:17:12.383Z,91.31
2022-11-29T21:21:23.610Z,90.88
2022-11-29T21:25:39.187Z,90.90
2022-11-29T21:29:42.493Z,90.90
2022-11-29T21:33:45.986Z,91.15
2022-11-29T21:38:00.651Z,90.77
2022-11-29T21:42:03.468Z,91.00
2022-11-29T21:46:06.343Z,91.12
2022-11-29T21:50:09.792Z,91.46
2022-11-29T21:54:13.812Z,91.28
2022-11-29T21:58:16.468Z,91.63
2022-11-29T22:02:19.267Z,91.58
2022-11-29T22:06:24.224Z,91.80
2022-11-29T22:10:28.660Z,91.66
2022-11-29T22:14:31.361Z,91.63
2022-11-29T22:18:34.101Z,91.59
2022-11-29T22:22:36.742Z,91.80
2022-11-29T22:26:41.215Z,91.61
2022-11-29T22:30:43.867Z,91.73
2022-11-29T22:34:46.670Z,91.77
2022-11-29T22:38:49.729Z,91.70
2022-11-29T22:42:54.280Z,91.60
2022-11-29T22:46:57.015Z,91.83
2022-11-29T22:51:04.606Z,91.91
2022-11-29T22:55:07.943Z,91.68
2022-11-29T22:59:12.350Z,91.38
2022-11-29T23:03:15.010Z,91.67
2022-11-29T23:07:17.739Z,91.78
2022-11-29T23:11:22.832Z,91.74
2022-11-29T23:15:26.843Z,91.91
2022-11-29T23:19:29.885Z,92.11
